sensor_id;sensor_type;location;lat;lon;timestamp;P1;P2;P0
68841;PMS5003;55849;48.482;2.332;2024-03-22T05:34:14;5.50;3.00;1.00
68841;PMS5003;55849;48.482;2.332;2024-03-22T05:37:16;8.50;3.00;1.50
68841;PMS5003;55849;48.482;2.332;2024-03-22T05:40:17;6.00;6.00;3.00
68841;PMS5003;55849;48.482;2.332;2024-03-22T05:43:18;5.75;3.50;2.00
68841;PMS5003;55849;48.482;2.332;2024-03-22T05:46:19;3.00;3.00;2.00
68841;PMS5003;55849;48.482;2.332;2024-03-22T05:49:22;9.50;6.25;3.00
68841;PMS5003;55849;48.482;2.332;2024-03-22T05:52:22;6.75;4.00;3.00
68841;PMS5003;55849;48.482;2.332;2024-03-22T05:55:24;3.50;3.50;3.00
68841;PMS5003;55849;48.482;2.332;2024-03-22T05:58:27;2.00;2.00;1.00
68841;PMS5003;55849;48.482;2.332;2024-03-22T06:01:28;5.00;2.75;2.50
68841;PMS5003;55849;48.482;2.332;2024-03-22T06:04:30;4.00;3.00;3.00
68841;PMS5003;55849;48.482;2.332;2024-03-22T06:07:32;2.00;2.00;1.00
68841;PMS5003;55849;48.482;2.332;2024-03-22T06:10:40;3.75;3.75;1.50
68841;PMS5003;55849;48.482;2.332;2024-03-22T06:13:42;5.50;3.00;3.00
68841;PMS5003;55849;48.482;2.332;2024-03-22T06:16:44;5.50;5.50;3.00
68841;PMS5003;55849;48.482;2.332;2024-03-22T06:19:46;5.00;3.00;1.00
68841;PMS5003;55849;48.482;2.332;2024-03-22T06:22:47;3.00;3.00;2.50
68841;PMS5003;55849;48.482;2.332;2024-03-22T06:25:51;4.00;4.00;3.00
68841;PMS5003;55849;48.482;2.332;2024-03-22T06:28:53;5.50;5.50;4.00
68841;PMS5003;55849;48.482;2.332;2024-03-22T06:31:54;8.75;4.50;3.25
68841;PMS5003;55849;48.482;2.332;2024-03-22T06:34:57;4.50;3.00;0.50
68841;PMS5003;55849;48.482;2.332;2024-03-22T06:37:58;8.00;6.00;3.25
68841;PMS5003;55849;48.482;2.332;2024-03-22T06:41:02;16.00;16.00;9.75
68841;PMS5003;55849;48.482;2.332;2024-03-22T06:44:04;15.50;14.00;9.50
68841;PMS5003;55849;48.482;2.332;2024-03-22T06:47:05;10.50;10.50;6.75
68841;PMS5003;55849;48.482;2.332;2024-03-22T06:50:08;9.25;9.25;6.00
68841;PMS5003;55849;48.482;2.332;2024-03-22T06:53:10;12.00;9.00;4.00
68841;PMS5003;55849;48.482;2.332;2024-03-22T06:56:12;10.50;5.75;5.00
68841;PMS5003;55849;48.482;2.332;2024-03-22T06:59:14;9.00;6.75;3.00
68841;PMS5003;55849;48.482;2.332;2024-03-22T07:02:15;8.50;8.50;6.00
68841;PMS5003;55849;48.482;2.332;2024-03-22T07:05:19;7.50;7.50;6.00
68841;PMS5003;55849;48.482;2.332;2024-03-22T07:08:20;14.00;9.75;8.50
68841;PMS5003;55849;48.482;2.332;2024-03-22T07:11:22;14.00;11.00;8.00
68841;PMS5003;55849;48.482;2.332;2024-03-22T07:14:23;23.50;10.00;9.00
68841;PMS5003;55849;48.482;2.332;2024-03-22T07:17:26;12.25;11.50;6.50
68841;PMS5003;55849;48.482;2.332;2024-03-22T07:20:27;11.00;9.00;6.00
68841;PMS5003;55849;48.482;2.332;2024-03-22T07:23:29;10.00;7.00;4.00
68841;PMS5003;55849;48.482;2.332;2024-03-22T07:26:30;8.25;6.00;3.00
68841;PMS5003;55849;48.482;2.332;2024-03-22T07:29:31;9.25;6.75;5.50
68841;PMS5003;55849;48.482;2.332;2024-03-22T07:32:32;9.00;9.00;6.50
68841;PMS5003;55849;48.482;2.332;2024-03-22T07:35:35;13.75;11.00;7.00
68841;PMS5003;55849;48.482;2.332;2024-03-22T07:38:36;10.75;9.00;6.00
68841;PMS5003;55849;48.482;2.332;2024-03-22T07:41:38;14.75;14.75;9.00
68841;PMS5003;55849;48.482;2.332;2024-03-22T07:44:39;18.75;12.00;9.00
68841;PMS5003;55849;48.482;2.332;2024-03-22T07:47:40;16.25;9.50;6.00
68841;PMS5003;55849;48.482;2.332;2024-03-22T07:50:45;14.25;12.25;7.00
68841;PMS5003;55849;48.482;2.332;2024-03-22T07:53:45;16.50;13.00;7.00
68841;PMS5003;55849;48.482;2.332;2024-03-22T07:56:47;14.00;13.00;7.00
68841;PMS5003;55849;48.482;2.332;2024-03-22T07:59:48;12.00;12.00;6.50
68841;PMS5003;55849;48.482;2.332;2024-03-22T08:02:49;15.00;15.00;9.25
68841;PMS5003;55849;48.482;2.332;2024-03-22T08:05:52;12.25;9.00;7.00
68841;PMS5003;55849;48.482;2.332;2024-03-22T08:08:53;15.75;13.75;9.25
68841;PMS5003;55849;48.482;2.332;2024-03-22T08:11:54;17.75;13.00;9.75
68841;PMS5003;55849;48.482;2.332;2024-03-22T08:14:56;14.25;14.00;9.75
68841;PMS5003;55849;48.482;2.332;2024-03-22T08:17:56;16.50;14.50;10.00
68841;PMS5003;55849;48.482;2.332;2024-03-22T08:20:59;11.00;11.00;7.00
68841;PMS5003;55849;48.482;2.332;2024-03-22T08:24:00;14.75;13.00;9.00
68841;PMS5003;55849;48.482;2.332;2024-03-22T08:27:02;18.00;13.00;9.00
68841;PMS5003;55849;48.482;2.332;2024-03-22T08:30:03;12.00;9.00;6.00
68841;PMS5003;55849;48.482;2.332;2024-03-22T08:33:05;21.50;14.00;9.75
68841;PMS5003;55849;48.482;2.332;2024-03-22T08:36:07;12.25;9.50;6.00
68841;PMS5003;55849;48.482;2.332;2024-03-22T08:39:09;12.50;12.50;8.50
68841;PMS5003;55849;48.482;2.332;2024-03-22T08:42:10;13.75;10.00;7.00
68841;PMS5003;55849;48.482;2.332;2024-03-22T08:45:11;17.50;17.50;10.25
68841;PMS5003;55849;48.482;2.332;2024-03-22T08:48:12;19.00;15.50;9.00
68841;PMS5003;55849;48.482;2.332;2024-03-22T08:51:15;11.00;10.00;7.50
68841;PMS5003;55849;48.482;2.332;2024-03-22T08:54:17;19.25;16.00;12.25
68841;PMS5003;55849;48.482;2.332;2024-03-22T08:57:18;11.50;10.00;7.00
68841;PMS5003;55849;48.482;2.332;2024-03-22T09:00:20;13.50;9.00;3.50
68841;PMS5003;55849;48.482;2.332;2024-03-22T09:03:20;10.50;9.50;6.00
68841;PMS5003;55849;48.482;2.332;2024-03-22T09:06:23;15.50;13.00;8.50
68841;PMS5003;55849;48.482;2.332;2024-03-22T09:09:24;13.75;13.00;10.50
68841;PMS5003;55849;48.482;2.332;2024-03-22T09:12:26;25.00;20.50;12.00
68841;PMS5003;55849;48.482;2.332;2024-03-22T09:15:26;25.00;18.00;12.00
68841;PMS5003;55849;48.482;2.332;2024-03-22T09:18:28;22.25;16.25;12.25
68841;PMS5003;55849;48.482;2.332;2024-03-22T09:21:30;14.00;12.25;9.00
68841;PMS5003;55849;48.482;2.332;2024-03-22T09:24:32;13.75;12.50;8.50
68841;PMS5003;55849;48.482;2.332;2024-03-22T09:27:33;24.50;23.50;16.50
68841;PMS5003;55849;48.482;2.332;2024-03-22T09:30:37;27.50;21.25;12.50
68841;PMS5003;55849;48.482;2.332;2024-03-22T09:33:38;18.50;16.50;12.00
68841;PMS5003;55849;48.482;2.332;2024-03-22T09:36:41;25.50;20.25;13.50
68841;PMS5003;55849;48.482;2.332;2024-03-22T09:39:42;18.75;14.00;10.00
68841;PMS5003;55849;48.482;2.332;2024-03-22T09:42:44;21.50;21.50;12.00
68841;PMS5003;55849;48.482;2.332;2024-03-22T09:45:49;15.00;15.00;8.00
68841;PMS5003;55849;48.482;2.332;2024-03-22T09:48:50;27.75;21.00;13.00
68841;PMS5003;55849;48.482;2.332;2024-03-22T09:51:55;29.75;25.25;16.50
68841;PMS5003;55849;48.482;2.332;2024-03-22T09:54:56;24.00;18.00;13.00
68841;PMS5003;55849;48.482;2.332;2024-03-22T09:57:57;27.25;17.50;12.50
68841;PMS5003;55849;48.482;2.332;2024-03-22T10:00:59;19.00;15.00;9.75
68841;PMS5003;55849;48.482;2.332;2024-03-22T10:04:01;19.00;13.25;10.00
68841;PMS5003;55849;48.482;2.332;2024-03-22T10:07:04;18.25;15.50;12.00
68841;PMS5003;55849;48.482;2.332;2024-03-22T10:10:05;21.00;20.50;14.00
68841;PMS5003;55849;48.482;2.332;2024-03-22T10:13:07;35.00;23.00;14.00
68841;PMS5003;55849;48.482;2.332;2024-03-22T10:16:09;24.50;16.75;12.75
68841;PMS5003;55849;48.482;2.332;2024-03-22T10:19:10;19.75;15.75;11.50
68841;PMS5003;55849;48.482;2.332;2024-03-22T10:22:12;21.75;21.50;13.00
68841;PMS5003;55849;48.482;2.332;2024-03-22T10:25:17;26.50;17.50;13.00
68841;PMS5003;55849;48.482;2.332;2024-03-22T10:28:18;22.25;17.00;12.25
68841;PMS5003;55849;48.482;2.332;2024-03-22T10:31:19;23.25;21.00;14.00
68841;PMS5003;55849;48.482;2.332;2024-03-22T10:34:21;26.00;20.25;14.00
68841;PMS5003;55849;48.482;2.332;2024-03-22T10:37:24;19.25;18.00;11.25
68841;PMS5003;55849;48.482;2.332;2024-03-22T10:40:25;25.00;23.75;14.50
68841;PMS5003;55849;48.482;2.332;2024-03-22T10:43:29;22.50;19.00;11.75
68841;PMS5003;55849;48.482;2.332;2024-03-22T10:46:30;24.75;18.75;13.75
68841;PMS5003;55849;48.482;2.332;2024-03-22T10:49:32;23.25;21.75;14.50
68841;PMS5003;55849;48.482;2.332;2024-03-22T10:52:39;24.25;22.75;15.00
68841;PMS5003;55849;48.482;2.332;2024-03-22T10:55:47;27.25;24.75;14.50
68841;PMS5003;55849;48.482;2.332;2024-03-22T10:58:49;25.25;21.25;14.25
68841;PMS5003;55849;48.482;2.332;2024-03-22T11:01:52;18.25;18.25;12.00
68841;PMS5003;55849;48.482;2.332;2024-03-22T11:04:54;15.00;14.00;9.00
68841;PMS5003;55849;48.482;2.332;2024-03-22T11:07:59;20.25;18.75;12.50
68841;PMS5003;55849;48.482;2.332;2024-03-22T11:11:08;25.50;22.00;15.00
68841;PMS5003;55849;48.482;2.332;2024-03-22T11:14:11;22.00;21.00;14.50
68841;PMS5003;55849;48.482;2.332;2024-03-22T11:17:12;14.50;14.50;11.00
68841;PMS5003;55849;48.482;2.332;2024-03-22T11:20:13;19.50;16.25;11.75
68841;PMS5003;55849;48.482;2.332;2024-03-22T11:23:16;22.00;19.00;13.00
68841;PMS5003;55849;48.482;2.332;2024-03-22T11:26:17;21.25;20.75;14.25
68841;PMS5003;55849;48.482;2.332;2024-03-22T11:29:19;23.75;18.75;12.00
68841;PMS5003;55849;48.482;2.332;2024-03-22T11:32:19;20.50;16.75;11.50
68841;PMS5003;55849;48.482;2.332;2024-03-22T11:35:21;22.50;20.00;13.00
68841;PMS5003;55849;48.482;2.332;2024-03-22T11:38:24;20.50;18.25;14.00
68841;PMS5003;55849;48.482;2.332;2024-03-22T11:41:28;24.00;20.75;13.00
68841;PMS5003;55849;48.482;2.332;2024-03-22T11:44:32;19.50;18.50;15.00
68841;PMS5003;55849;48.482;2.332;2024-03-22T11:47:34;27.50;22.00;15.25
68841;PMS5003;55849;48.482;2.332;2024-03-22T11:50:36;20.75;20.25;13.00
68841;PMS5003;55849;48.482;2.332;2024-03-22T11:53:39;28.25;21.75;15.00
68841;PMS5003;55849;48.482;2.332;2024-03-22T11:56:48;20.00;18.50;12.00
68841;PMS5003;55849;48.482;2.332;2024-03-22T11:59:50;23.00;22.25;13.75
68841;PMS5003;55849;48.482;2.332;2024-03-22T12:02:52;22.00;19.75;13.25
68841;PMS5003;55849;48.482;2.332;2024-03-22T12:05:54;23.25;19.00;13.00
68841;PMS5003;55849;48.482;2.332;2024-03-22T12:08:57;22.00;20.75;13.00
68841;PMS5003;55849;48.482;2.332;2024-03-22T12:11:59;28.75;24.25;15.25
68841;PMS5003;55849;48.482;2.332;2024-03-22T12:14:59;32.50;27.50;16.00
68841;PMS5003;55849;48.482;2.332;2024-03-22T12:18:02;22.00;19.50;13.25
68841;PMS5003;55849;48.482;2.332;2024-03-22T12:21:03;21.50;20.50;13.50
68841;PMS5003;55849;48.482;2.332;2024-03-22T12:24:06;21.50;19.75;12.25
68841;PMS5003;55849;48.482;2.332;2024-03-22T12:27:07;24.25;22.25;14.75
68841;PMS5003;55849;48.482;2.332;2024-03-22T12:30:08;22.25;19.25;13.00
68841;PMS5003;55849;48.482;2.332;2024-03-22T12:33:10;26.50;22.50;16.00
68841;PMS5003;55849;48.482;2.332;2024-03-22T12:36:11;24.50;22.00;14.50
68841;PMS5003;55849;48.482;2.332;2024-03-22T12:39:14;20.25;18.75;13.75
68841;PMS5003;55849;48.482;2.332;2024-03-22T12:42:14;19.75;19.00;14.50
68841;PMS5003;55849;48.482;2.332;2024-03-22T12:45:17;19.75;19.50;13.25
68841;PMS5003;55849;48.482;2.332;2024-03-22T12:48:19;19.00;19.00;13.50
68841;PMS5003;55849;48.482;2.332;2024-03-22T12:51:20;23.75;21.00;15.50
68841;PMS5003;55849;48.482;2.332;2024-03-22T12:54:22;22.75;22.75;14.25
68841;PMS5003;55849;48.482;2.332;2024-03-22T12:57:25;20.25;19.25;14.50
68841;PMS5003;55849;48.482;2.332;2024-03-22T13:00:26;21.25;18.25;11.50
68841;PMS5003;55849;48.482;2.332;2024-03-22T13:03:27;27.25;20.50;12.75
68841;PMS5003;55849;48.482;2.332;2024-03-22T13:06:29;24.75;20.00;13.50
68841;PMS5003;55849;48.482;2.332;2024-03-22T13:09:31;20.75;16.25;11.25
68841;PMS5003;55849;48.482;2.332;2024-03-22T13:12:33;21.50;20.50;14.00
68841;PMS5003;55849;48.482;2.332;2024-03-22T13:15:34;19.50;17.75;13.25
68841;PMS5003;55849;48.482;2.332;2024-03-22T13:18:37;24.00;19.25;14.00
68841;PMS5003;55849;48.482;2.332;2024-03-22T13:21:37;19.75;16.25;11.00
68841;PMS5003;55849;48.482;2.332;2024-03-22T13:24:40;21.25;16.50;9.25
68841;PMS5003;55849;48.482;2.332;2024-03-22T13:27:41;19.50;18.50;12.00
68841;PMS5003;55849;48.482;2.332;2024-03-22T13:30:43;17.00;16.75;12.50
68841;PMS5003;55849;48.482;2.332;2024-03-22T13:33:44;21.75;20.25;11.50
68841;PMS5003;55849;48.482;2.332;2024-03-22T13:36:45;18.00;16.50;11.25
68841;PMS5003;55849;48.482;2.332;2024-03-22T13:39:49;18.00;17.75;12.50
68841;PMS5003;55849;48.482;2.332;2024-03-22T13:42:52;19.00;17.25;12.00
68841;PMS5003;55849;48.482;2.332;2024-03-22T13:45:53;15.75;15.50;10.00
68841;PMS5003;55849;48.482;2.332;2024-03-22T13:48:55;17.00;14.50;9.75
68841;PMS5003;55849;48.482;2.332;2024-03-22T13:51:57;16.00;14.00;10.25
68841;PMS5003;55849;48.482;2.332;2024-03-22T13:55:00;12.25;11.00;6.50
68841;PMS5003;55849;48.482;2.332;2024-03-22T13:58:01;12.00;11.50;9.25
68841;PMS5003;55849;48.482;2.332;2024-03-22T14:01:03;8.75;8.25;6.00
68841;PMS5003;55849;48.482;2.332;2024-03-22T14:04:05;6.50;5.75;5.00
68841;PMS5003;55849;48.482;2.332;2024-03-22T14:07:05;15.00;9.50;5.25
68841;PMS5003;55849;48.482;2.332;2024-03-22T14:10:09;8.50;7.25;5.00
68841;PMS5003;55849;48.482;2.332;2024-03-22T14:13:13;9.25;7.75;6.00
68841;PMS5003;55849;48.482;2.332;2024-03-22T14:16:15;7.75;7.75;6.00
68841;PMS5003;55849;48.482;2.332;2024-03-22T14:19:16;13.50;7.50;5.00
68841;PMS5003;55849;48.482;2.332;2024-03-22T14:22:19;8.25;6.00;5.00
68841;PMS5003;55849;48.482;2.332;2024-03-22T14:25:21;7.25;7.25;6.00
68841;PMS5003;55849;48.482;2.332;2024-03-22T14:28:22;11.25;7.25;5.00
68841;PMS5003;55849;48.482;2.332;2024-03-22T14:31:23;7.50;7.50;5.00
68841;PMS5003;55849;48.482;2.332;2024-03-22T14:34:24;12.75;11.00;7.25
68841;PMS5003;55849;48.482;2.332;2024-03-22T14:37:26;13.50;11.50;8.00
68841;PMS5003;55849;48.482;2.332;2024-03-22T14:40:29;11.25;11.00;7.50
68841;PMS5003;55849;48.482;2.332;2024-03-22T14:43:31;13.25;10.25;7.50
68841;PMS5003;55849;48.482;2.332;2024-03-22T14:46:34;9.25;9.25;7.00
68841;PMS5003;55849;48.482;2.332;2024-03-22T14:49:35;10.50;10.50;7.75
68841;PMS5003;55849;48.482;2.332;2024-03-22T14:52:36;10.75;10.25;7.75
68841;PMS5003;55849;48.482;2.332;2024-03-22T14:55:40;15.00;10.50;7.75
68841;PMS5003;55849;48.482;2.332;2024-03-22T14:58:42;10.00;10.00;8.00
68841;PMS5003;55849;48.482;2.332;2024-03-22T15:01:43;11.75;8.50;7.00
68841;PMS5003;55849;48.482;2.332;2024-03-22T15:04:44;10.50;8.50;8.25
68841;PMS5003;55849;48.482;2.332;2024-03-22T15:07:45;10.50;10.00;7.00
68841;PMS5003;55849;48.482;2.332;2024-03-22T15:10:48;10.75;8.50;6.00
68841;PMS5003;55849;48.482;2.332;2024-03-22T15:13:50;9.00;8.00;6.25
68841;PMS5003;55849;48.482;2.332;2024-03-22T15:16:51;9.25;9.25;7.25
68841;PMS5003;55849;48.482;2.332;2024-03-22T15:19:52;12.00;11.00;8.25
68841;PMS5003;55849;48.482;2.332;2024-03-22T15:22:53;15.75;11.75;9.25
68841;PMS5003;55849;48.482;2.332;2024-03-22T15:25:56;12.50;9.25;8.25
68841;PMS5003;55849;48.482;2.332;2024-03-22T15:28:57;12.00;12.00;8.00
68841;PMS5003;55849;48.482;2.332;2024-03-22T15:31:58;12.25;9.75;6.75
68841;PMS5003;55849;48.482;2.332;2024-03-22T15:35:00;7.25;7.25;6.00
68841;PMS5003;55849;48.482;2.332;2024-03-22T15:38:00;7.25;5.00;4.25
68841;PMS5003;55849;48.482;2.332;2024-03-22T15:41:05;6.50;6.00;5.00
68841;PMS5003;55849;48.482;2.332;2024-03-22T15:44:05;8.50;8.25;5.00
68841;PMS5003;55849;48.482;2.332;2024-03-22T15:47:08;7.50;7.00;5.25
68841;PMS5003;55849;48.482;2.332;2024-03-22T15:50:09;5.00;5.00;3.00
68841;PMS5003;55849;48.482;2.332;2024-03-22T15:53:11;5.50;5.50;3.75
68841;PMS5003;55849;48.482;2.332;2024-03-22T15:56:13;5.00;5.00;3.00
68841;PMS5003;55849;48.482;2.332;2024-03-22T15:59:14;2.50;2.50;2.25
68841;PMS5003;55849;48.482;2.332;2024-03-22T16:02:16;5.25;5.25;3.25
68841;PMS5003;55849;48.482;2.332;2024-03-22T16:05:17;4.25;3.25;2.50
68841;PMS5003;55849;48.482;2.332;2024-03-22T16:08:19;4.00;3.50;2.75
68841;PMS5003;55849;48.482;2.332;2024-03-22T16:11:21;6.75;6.00;4.00
68841;PMS5003;55849;48.482;2.332;2024-03-22T16:14:22;6.00;4.25;3.50
68841;PMS5003;55849;48.482;2.332;2024-03-22T16:17:24;10.00;7.25;4.00
68841;PMS5003;55849;48.482;2.332;2024-03-22T16:20:25;6.00;5.00;4.00
68841;PMS5003;55849;48.482;2.332;2024-03-22T16:23:26;4.25;4.00;4.00
68841;PMS5003;55849;48.482;2.332;2024-03-22T16:26:29;3.00;3.00;2.00
68841;PMS5003;55849;48.482;2.332;2024-03-22T16:29:30;3.00;3.00;2.00
68841;PMS5003;55849;48.482;2.332;2024-03-22T16:32:32;3.00;3.00;2.00
68841;PMS5003;55849;48.482;2.332;2024-03-22T16:35:32;5.00;4.00;3.00
68841;PMS5003;55849;48.482;2.332;2024-03-22T16:38:34;4.00;4.00;3.25
68841;PMS5003;55849;48.482;2.332;2024-03-22T16:41:36;3.00;2.25;2.00
68841;PMS5003;55849;48.482;2.332;2024-03-22T16:44:38;6.00;4.25;2.25
68841;PMS5003;55849;48.482;2.332;2024-03-22T16:47:38;2.25;2.25;1.25
68841;PMS5003;55849;48.482;2.332;2024-03-22T16:50:40;4.00;3.00;3.00
68841;PMS5003;55849;48.482;2.332;2024-03-22T16:53:43;3.75;3.75;2.25
68841;PMS5003;55849;48.482;2.332;2024-03-22T16:56:46;4.00;4.00;2.75
68841;PMS5003;55849;48.482;2.332;2024-03-22T16:59:47;4.75;4.75;3.00
68841;PMS5003;55849;48.482;2.332;2024-03-22T17:02:48;3.00;3.00;3.00
68841;PMS5003;55849;48.482;2.332;2024-03-22T17:05:50;3.00;3.00;2.00
68841;PMS5003;55849;48.482;2.332;2024-03-22T17:08:50;4.00;4.00;3.00
68841;PMS5003;55849;48.482;2.332;2024-03-22T17:11:53;6.50;5.75;4.00
68841;PMS5003;55849;48.482;2.332;2024-03-22T17:14:54;5.50;3.00;3.00
68841;PMS5003;55849;48.482;2.332;2024-03-22T17:17:56;5.25;5.25;3.75
68841;PMS5003;55849;48.482;2.332;2024-03-22T17:20:58;5.00;5.00;4.00
68841;PMS5003;55849;48.482;2.332;2024-03-22T17:23:58;8.00;5.00;3.75
68841;PMS5003;55849;48.482;2.332;2024-03-22T17:27:01;8.75;8.00;6.00
68841;PMS5003;55849;48.482;2.332;2024-03-22T17:30:03;4.25;4.25;3.00
68841;PMS5003;55849;48.482;2.332;2024-03-22T17:33:04;8.25;8.25;5.75
68841;PMS5003;55849;48.482;2.332;2024-03-22T17:36:06;23.00;22.25;15.50
68841;PMS5003;55849;48.482;2.332;2024-03-22T17:39:07;5.25;5.25;4.25
68841;PMS5003;55849;48.482;2.332;2024-03-22T17:42:10;5.25;5.25;4.00
68841;PMS5003;55849;48.482;2.332;2024-03-22T17:45:11;12.75;11.25;7.00
68841;PMS5003;55849;48.482;2.332;2024-03-22T17:48:13;11.50;7.50;5.25
68841;PMS5003;55849;48.482;2.332;2024-03-22T17:51:13;20.00;18.00;11.50
68841;PMS5003;55849;48.482;2.332;2024-03-22T17:54:15;21.50;19.50;15.25
68841;PMS5003;55849;48.482;2.332;2024-03-22T17:57:18;17.00;14.50;10.25
68841;PMS5003;55849;48.482;2.332;2024-03-22T18:00:19;6.00;6.00;5.00
68841;PMS5003;55849;48.482;2.332;2024-03-22T18:03:20;48.25;39.00;26.25
68841;PMS5003;55849;48.482;2.332;2024-03-22T18:06:22;36.00;33.00;21.50
68841;PMS5003;55849;48.482;2.332;2024-03-22T18:09:23;28.25;21.50;15.75
68841;PMS5003;55849;48.482;2.332;2024-03-22T18:12:26;78.50;65.50;43.50
68841;PMS5003;55849;48.482;2.332;2024-03-22T18:15:26;52.50;39.75;27.00
68841;PMS5003;55849;48.482;2.332;2024-03-22T18:18:28;45.25;39.50;28.00
68841;PMS5003;55849;48.482;2.332;2024-03-22T18:21:28;24.00;24.00;17.75
68841;PMS5003;55849;48.482;2.332;2024-03-22T18:24:30;12.25;12.25;10.50
68841;PMS5003;55849;48.482;2.332;2024-03-22T18:27:33;27.50;22.00;14.50
68841;PMS5003;55849;48.482;2.332;2024-03-22T18:30:34;23.25;20.50;16.50
68841;PMS5003;55849;48.482;2.332;2024-03-22T18:33:35;51.75;41.00;27.00
68841;PMS5003;55849;48.482;2.332;2024-03-22T18:36:36;60.50;45.25;26.75
68841;PMS5003;55849;48.482;2.332;2024-03-22T18:39:39;32.75;25.25;16.25
68841;PMS5003;55849;48.482;2.332;2024-03-22T18:42:41;17.50;11.75;5.50
68841;PMS5003;55849;48.482;2.332;2024-03-22T18:45:43;24.00;18.00;12.00
68841;PMS5003;55849;48.482;2.332;2024-03-22T18:48:43;14.25;12.50;8.00
68841;PMS5003;55849;48.482;2.332;2024-03-22T18:51:45;18.50;16.75;12.00
68841;PMS5003;55849;48.482;2.332;2024-03-22T18:54:47;24.25;23.00;17.50
68841;PMS5003;55849;48.482;2.332;2024-03-22T18:57:57;14.00;12.25;9.25
68841;PMS5003;55849;48.482;2.332;2024-03-22T19:00:58;10.00;10.00;8.25
68841;PMS5003;55849;48.482;2.332;2024-03-22T19:04:00;24.00;22.00;15.75
68841;PMS5003;55849;48.482;2.332;2024-03-22T19:07:01;20.25;20.25;14.75
68841;PMS5003;55849;48.482;2.332;2024-03-22T19:10:02;19.75;18.00;13.25
68841;PMS5003;55849;48.482;2.332;2024-03-22T19:13:08;15.50;14.50;9.75
68841;PMS5003;55849;48.482;2.332;2024-03-22T19:16:09;16.75;15.75;10.50
68841;PMS5003;55849;48.482;2.332;2024-03-22T19:19:10;15.50;13.50;10.00
68841;PMS5003;55849;48.482;2.332;2024-03-22T19:22:11;11.50;8.75;6.50
68841;PMS5003;55849;48.482;2.332;2024-03-22T19:25:13;10.75;9.00;6.25
68841;PMS5003;55849;48.482;2.332;2024-03-22T19:28:16;10.00;10.00;8.00
68841;PMS5003;55849;48.482;2.332;2024-03-22T19:31:16;17.00;14.25;10.25
68841;PMS5003;55849;48.482;2.332;2024-03-22T19:34:18;15.50;12.00;10.00
68841;PMS5003;55849;48.482;2.332;2024-03-22T19:37:19;13.00;11.75;10.00
68841;PMS5003;55849;48.482;2.332;2024-03-22T19:40:20;10.00;10.00;7.00
68841;PMS5003;55849;48.482;2.332;2024-03-22T19:43:22;10.75;10.00;7.25
68841;PMS5003;55849;48.482;2.332;2024-03-22T19:46:25;10.00;10.00;8.50
68841;PMS5003;55849;48.482;2.332;2024-03-22T19:49:26;12.75;12.75;8.75
68841;PMS5003;55849;48.482;2.332;2024-03-22T19:52:28;18.00;14.00;12.00
68841;PMS5003;55849;48.482;2.332;2024-03-22T19:55:30;6.50;6.00;4.75
68841;PMS5003;55849;48.482;2.332;2024-03-22T19:58:32;11.50;11.50;8.75
68841;PMS5003;55849;48.482;2.332;2024-03-22T20:01:33;8.00;5.00;3.75
68841;PMS5003;55849;48.482;2.332;2024-03-22T20:04:34;5.00;5.00;3.50
68841;PMS5003;55849;48.482;2.332;2024-03-22T20:07:36;5.25;5.25;4.75
68841;PMS5003;55849;48.482;2.332;2024-03-22T20:10:36;7.25;6.00;4.25
68841;PMS5003;55849;48.482;2.332;2024-03-22T20:13:39;10.00;10.00;7.00
68841;PMS5003;55849;48.482;2.332;2024-03-22T20:16:41;13.00;13.00;7.50
68841;PMS5003;55849;48.482;2.332;2024-03-22T20:19:41;11.50;10.00;7.00
68841;PMS5003;55849;48.482;2.332;2024-03-22T20:22:43;18.25;13.00;9.50
68841;PMS5003;55849;48.482;2.332;2024-03-22T20:25:44;13.00;10.75;8.00
68841;PMS5003;55849;48.482;2.332;2024-03-22T20:28:48;14.75;12.00;8.25
68841;PMS5003;55849;48.482;2.332;2024-03-22T20:31:51;15.00;13.50;9.75
68841;PMS5003;55849;48.482;2.332;2024-03-22T20:34:51;19.00;16.25;11.25
